Time;durP1;ratioP1;P1;durP2;ratioP2;P2;SDS_P1;SDS_P2;PMS_P1;PMS_P2;Temp;Humidity;BMP_temperature;BMP_pressure;BME280_temperature;BME280_humidity;BME280_pressure;Samples;Min_cycle;Max_cycle;Signal;HPM_P1;HPM_P2
2024/04/05 00:00:17;;;;;;;;;;;;;;;;;;2076687;28;20049;-74
2024/04/05 00:01:18;;;;;;;;;;;;;;;;;;2075917;28;20096;-74
2024/04/05 00:02:19;;;;;;;6.00;1.45;;;;;;;;;;2077282;28;20289;-74
2024/04/05 00:03:20;;;;;;;;;;;;;;;;;;2072758;28;20064;-73
2024/04/05 00:04:20;;;;;;;7.27;1.70;;;;;;;;;;2071804;28;19925;-73
2024/04/05 00:05:22;;;;;;;;;;;;;;;;;;2074226;28;20870;-74
2024/04/05 00:06:23;;;;;;;6.13;1.30;;;;;;;;;;2075853;28;19925;-74
2024/04/05 00:07:23;;;;;;;;;;;;;;;;;;2077188;28;20478;-75
2024/04/05 00:08:25;;;;;;;5.10;1.60;;;;;;;;;;2075019;28;19917;-73
2024/04/05 00:09:27;;;;;;;4.90;1.70;;;;;;;;;;2076477;28;20053;-74
2024/04/05 00:10:28;;;;;;;5.72;1.38;;;;;;;;;;2073658;28;20050;-74
2024/04/05 00:11:31;;;;;;;6.40;1.52;;;;;;;;;;2074398;28;20107;-74
2024/04/05 00:12:33;;;;;;;6.13;1.40;;;;;;;;;;2075261;28;20127;-74
2024/04/05 00:13:34;;;;;;;6.97;1.80;;;;;;;;;;2074543;28;20053;-76
2024/04/05 00:14:35;;;;;;;7.13;1.48;;;;;;;;;;2073923;28;20083;-74
2024/04/05 00:15:38;;;;;;;;;;;;;;;;;;2076425;28;20107;-74
2024/04/05 00:16:40;;;;;;;6.22;1.88;;;;;;;;;;2075289;28;20066;-75
2024/04/05 00:17:41;;;;;;;6.82;1.60;;;;;;;;;;2076234;28;20054;-75
2024/04/05 00:18:42;;;;;;;;;;;;;;;;;;2075774;28;20053;-79
2024/04/05 00:19:43;;;;;;;8.50;1.90;;;;;;;;;;2075625;28;19932;-78
2024/04/05 00:20:44;;;;;;;;;;;;;;;;;;2074013;28;20517;-78
2024/04/05 00:21:45;;;;;;;8.25;2.03;;;;;;;;;;2076124;28;20671;-79
2024/04/05 00:22:45;;;;;;;;;;;;;;;;;;2074982;28;20088;-79
2024/04/05 00:23:48;;;;;;;9.90;1.80;;;;;;;;;;2073483;28;19921;-79
2024/04/05 00:24:52;;;;;;;6.80;1.63;;;;;;;;;;2074188;28;20492;-78
2024/04/05 00:26:04;;;;;;;6.00;1.70;;;;;;;;;;2074399;28;20129;-78
2024/04/05 00:27:07;;;;;;;6.88;1.65;;;;;;;;;;2077026;28;20072;-78
2024/04/05 00:28:08;;;;;;;6.32;1.63;;;;;;;;;;2077493;28;20068;-78
2024/04/05 00:29:11;;;;;;;;;;;;;;;;;;2077250;28;20168;-79
2024/04/05 00:30:11;;;;;;;11.68;1.67;;;;;;;;;;2077662;28;20393;-78
2024/04/05 00:31:12;;;;;;;;;;;;;;;;;;2077592;28;20085;-77
2024/04/05 00:32:13;;;;;;;5.73;1.53;;;;;;;;;;2078403;28;20008;-78
2024/04/05 00:33:16;;;;;;;;;;;;;;;;;;2076964;28;20103;-78
2024/04/05 00:34:17;;;;;;;6.10;1.70;;;;;;;;;;2077267;28;19925;-78
2024/04/05 00:35:18;;;;;;;;;;;;;;;;;;2076973;28;20081;-79
2024/04/05 00:36:19;;;;;;;5.57;1.47;;;;;;;;;;2076132;28;19968;-77
2024/04/05 00:37:21;;;;;;;7.25;1.92;;;;;;;;;;2077702;28;20045;-79
2024/04/05 00:38:23;;;;;;;8.43;1.95;;;;;;;;;;2077441;28;20118;-79
2024/04/05 00:39:23;;;;;;;6.63;1.50;;;;;;;;;;2078695;28;20067;-79
2024/04/05 00:40:26;;;;;;;;;;;;;;;;;;2076711;28;20422;-78
2024/04/05 00:41:28;;;;;;;7.53;1.90;;;;;;;;;;2077966;28;19921;-78
2024/04/05 00:42:30;;;;;;;5.80;1.60;;;;;;;;;;2077947;28;20080;-78
2024/04/05 00:43:31;;;;;;;6.22;1.65;;;;;;;;;;2076547;28;20080;-78
2024/04/05 00:44:33;;;;;;;;;;;;;;;;;;2076306;28;20433;-78
2024/04/05 00:45:34;;;;;;;5.43;1.48;;;;;;;;;;2074609;28;19928;-79
2024/04/05 00:46:35;;;;;;;6.70;1.73;;;;;;;;;;2075771;28;20951;-78
2024/04/05 00:47:36;;;;;;;11.63;2.50;;;;;;;;;;2076429;28;20060;-78
2024/04/05 00:48:38;;;;;;;;;;;;;;;;;;2075868;28;20060;-78
2024/04/05 00:49:38;;;;;;;5.90;1.50;;;;;;;;;;2075450;28;19922;-78
2024/04/05 00:50:39;;;;;;;;;;;;;;;;;;2078026;28;20049;-78
2024/04/05 00:51:40;;;;;;;7.93;2.00;;;;;;;;;;2077891;28;20656;-78
2024/04/05 00:52:41;;;;;;;;;;;;;;;;;;2077019;28;20057;-78
2024/04/05 00:53:42;;;;;;;;;;;;;;;;;;2077521;28;20020;-77
2024/04/05 00:54:43;;;;;;;6.87;1.60;;;;;;;;;;2076173;28;19928;-76
2024/04/05 00:55:43;;;;;;;;;;;;;;;;;;2077299;28;21283;-77
2024/04/05 00:56:45;;;;;;;4.50;1.27;;;;;;;;;;2077813;28;19925;-77
2024/04/05 00:57:47;;;;;;;7.22;1.52;;;;;;;;;;2076437;28;20049;-77
2024/04/05 00:58:48;;;;;;;9.27;1.80;;;;;;;;;;2076011;28;20053;-77
2024/04/05 00:59:49;;;;;;;;;;;;;;;;;;2079667;28;20053;-77
2024/04/05 01:00:50;;;;;;;6.60;1.60;;;;;;;;;;2076894;28;19929;-78
2024/04/05 01:01:51;;;;;;;7.30;1.55;;;;;;;;;;2075185;28;20064;-78
2024/04/05 01:02:52;;;;;;;;;;;;;;;;;;2076782;28;20049;-78
2024/04/05 01:03:53;;;;;;;6.40;1.30;;;;;;;;;;2076596;28;19921;-78
2024/04/05 01:04:54;;;;;;;;;;;;;;;;;;2076323;28;20053;-78
2024/04/05 01:05:55;;;;;;;;;;;;;;;;;;2076902;28;19982;-78
2024/04/05 01:06:55;;;;;;;4.90;1.33;;;;;;;;;;2077399;28;19929;-78
2024/04/05 01:07:56;;;;;;;;;;;;;;;;;;2076348;28;20453;-78
2024/04/05 01:08:58;;;;;;;6.57;1.47;;;;;;;;;;2076888;28;19926;-80
2024/04/05 01:09:59;;;;;;;6.40;1.65;;;;;;;;;;2077105;28;20595;-78
2024/04/05 01:10:59;;;;;;;;;;;;;;;;;;2076260;28;20049;-77
2024/04/05 01:12:01;;;;;;;9.53;2.17;;;;;;;;;;2076553;28;20373;-78
2024/04/05 01:13:04;;;;;;;9.05;1.73;;;;;;;;;;2077204;28;20053;-78
2024/04/05 01:14:05;;;;;;;9.70;1.45;;;;;;;;;;2074624;28;20196;-78
2024/04/05 01:15:05;;;;;;;;;;;;;;;;;;2075459;28;20049;-77
2024/04/05 01:16:06;;;;;;;6.10;1.50;;;;;;;;;;2076767;28;19928;-77
2024/04/05 01:17:08;;;;;;;;;;;;;;;;;;2077989;28;20073;-78
2024/04/05 01:18:09;;;;;;;;;;;;;;;;;;2077277;28;19925;-77
2024/04/05 01:19:11;;;;;;;4.47;1.30;;;;;;;;;;2076404;28;19925;-77
2024/04/05 01:20:12;;;;;;;4.43;1.30;;;;;;;;;;2077426;28;20052;-77
2024/04/05 01:21:14;;;;;;;7.75;2.08;;;;;;;;;;2077799;28;20823;-77
2024/04/05 01:22:16;;;;;;;8.40;1.48;;;;;;;;;;2075879;28;20050;-77
2024/04/05 01:23:17;;;;;;;6.50;1.52;;;;;;;;;;2072826;28;20060;-78
2024/04/05 01:24:19;;;;;;;9.90;2.10;;;;;;;;;;2075251;28;20472;-78
2024/04/05 01:25:21;;;;;;;5.78;1.90;;;;;;;;;;2075453;28;20049;-77
2024/04/05 01:26:21;;;;;;;7.43;1.80;;;;;;;;;;2077235;28;20053;-78
2024/04/05 01:27:22;;;;;;;;;;;;;;;;;;2079130;28;20534;-78
2024/04/05 01:28:23;;;;;;;7.23;2.00;;;;;;;;;;2076778;28;19931;-77
2024/04/05 01:29:25;;;;;;;;;;;;;;;;;;2076855;28;20060;-73
2024/04/05 01:30:25;;;;;;;5.22;1.33;;;;;;;;;;2071370;28;19971;-73
2024/04/05 01:31:26;;;;;;;;;;;;;;;;;;2077537;28;20037;-73
2024/04/05 01:32:27;;;;;;;6.37;1.90;;;;;;;;;;2076649;28;19921;-73
2024/04/05 01:33:28;;;;;;;;;;;;;;;;;;2077206;28;20779;-73
2024/04/05 01:34:29;;;;;;;5.90;2.22;;;;;;;;;;2076441;28;20058;-74
2024/04/05 01:35:29;;;;;;;;;;;;;;;;;;2068113;28;20573;-73
2024/04/05 01:36:30;;;;;;;6.77;1.70;;;;;;;;;;2066830;28;19921;-72
2024/04/05 01:37:31;;;;;;;;;;;;;;;;;;2076171;28;20823;-73
2024/04/05 01:38:32;;;;;;;5.07;1.40;;;;;;;;;;2075687;28;19929;-73
2024/04/05 01:39:35;;;;;;;7.05;1.90;;;;;;;;;;2075323;28;20129;-73
2024/04/05 01:40:36;;;;;;;9.00;1.88;;;;;;;;;;2077376;28;20128;-73
2024/04/05 01:41:36;;;;;;;;;;;;;;;;;;2076876;28;20050;-73
2024/04/05 01:42:38;;;;;;;9.93;1.80;;;;;;;;;;2077590;28;19921;-73
2024/04/05 01:43:39;;;;;;;6.93;1.85;;;;;;;;;;2074948;28;20046;-72
2024/04/05 01:44:40;;;;;;;;;;;;;;;;;;2075655;28;20077;-73
2024/04/05 01:45:40;;;;;;;5.87;1.50;;;;;;;;;;2078010;28;19925;-73
2024/04/05 01:46:42;;;;;;;;;;;;;;;;;;2077489;28;20072;-73
2024/04/05 01:47:43;;;;;;;4.25;1.55;;;;;;;;;;2076021;28;19932;-73
2024/04/05 01:48:44;;;;;;;3.63;1.38;;;;;;;;;;2076103;28;20041;-73
2024/04/05 01:49:44;;;;;;;;;;;;;;;;;;2076133;28;20046;-73
2024/04/05 01:50:46;;;;;;;7.53;1.47;;;;;;;;;;2075489;28;19980;-73
2024/04/05 01:51:47;;;;;;;6.05;1.50;;;;;;;;;;2074912;28;20524;-72
2024/04/05 01:52:47;;;;;;;;;;;;;;;;;;2076279;28;20056;-73
2024/04/05 01:53:48;;;;;;;7.30;1.93;;;;;;;;;;2077292;28;19928;-72
2024/04/05 01:54:52;;;;;;;;;;;;;;;;;;2076744;28;20100;-73
2024/04/05 01:55:53;;;;;;;6.90;2.05;;;;;;;;;;2074466;28;19967;-75
2024/04/05 01:56:54;;;;;;;;;;;;;;;;;;2077775;28;20050;-73
2024/04/05 01:57:55;;;;;;;9.27;2.20;;;;;;;;;;2076315;28;19982;-72
2024/04/05 01:58:56;;;;;;;6.20;2.20;;;;;;;;;;2076477;28;20041;-72
2024/04/05 01:59:57;;;;;;;;;;;;;;;;;;2075966;28;20487;-73
2024/04/05 02:01:02;;;;;;;3.93;1.90;;;;;;;;;;2074446;28;19929;-75
2024/04/05 02:02:03;;;;;;;6.22;2.00;;;;;;;;;;2073042;28;20053;-73
2024/04/05 02:03:04;;;;;;;11.18;2.30;;;;;;;;;;2071041;28;20045;-72
2024/04/05 02:04:04;;;;;;;;;;;;;;;;;;2075535;28;20734;-73
2024/04/05 02:05:07;;;;;;;5.67;1.70;;;;;;;;;;2074865;28;19932;-74
2024/04/05 02:06:12;;;;;;;6.60;2.30;;;;;;;;;;2076817;28;20053;-74
2024/04/05 02:07:13;;;;;;;9.82;2.55;;;;;;;;;;2075728;28;20057;-74
2024/04/05 02:08:13;;;;;;;;;;;;;;;;;;2074645;28;20081;-74
2024/04/05 02:09:16;;;;;;;5.60;2.13;;;;;;;;;;2074611;28;19920;-74
2024/04/05 02:10:18;;;;;;;8.73;2.08;;;;;;;;;;2075635;28;20505;-74
2024/04/05 02:11:18;;;;;;;8.43;2.67;;;;;;;;;;2075009;28;20052;-74
2024/04/05 02:12:20;;;;;;;;;;;;;;;;;;2076151;28;20507;-74
2024/04/05 02:13:22;;;;;;;7.47;2.63;;;;;;;;;;2076554;28;19971;-74
2024/04/05 02:14:23;;;;;;;7.28;2.72;;;;;;;;;;2077761;28;20139;-74
2024/04/05 02:15:23;;;;;;;;;;;;;;;;;;2077736;28;20480;-73
2024/04/05 02:16:24;;;;;;;8.10;2.53;;;;;;;;;;2076289;28;19986;-74
2024/04/05 02:17:25;;;;;;;;;;;;;;;;;;2077319;28;20425;-74
2024/04/05 02:18:26;;;;;;;11.07;2.65;;;;;;;;;;2075921;28;19967;-73
2024/04/05 02:19:27;;;;;;;;;;;;;;;;;;2077833;28;21466;-73
2024/04/05 02:20:27;;;;;;;5.73;2.20;;;;;;;;;;2074394;28;20021;-73
2024/04/05 02:21:29;;;;;;;;;;;;;;;;;;2076987;28;20127;-73
2024/04/05 02:22:30;;;;;;;8.93;2.30;;;;;;;;;;2074134;28;19931;-74
2024/04/05 02:23:30;;;;;;;;;;;;;;;;;;2076521;28;20052;-73
2024/04/05 02:24:33;;;;;;;9.57;2.83;;;;;;;;;;2074069;28;19921;-74
2024/04/05 02:25:35;;;;;;;13.43;3.63;;;;;;;;;;2075841;28;20121;-74
2024/04/05 02:26:35;;;;;;;8.55;3.00;;;;;;;;;;2074610;28;20117;-73
2024/04/05 02:27:36;;;;;;;;;;;;;;;;;;2075812;28;20049;-74
2024/04/05 02:28:37;;;;;;;8.33;3.00;;;;;;;;;;2072896;28;19964;-73
2024/04/05 02:29:39;;;;;;;;;;;;;;;;;;2078868;28;20049;-73
2024/04/05 02:30:40;;;;;;;8.40;3.40;;;;;;;;;;2074498;28;19921;-73
2024/04/05 02:31:40;;;;;;;;;;;;;;;;;;2075351;28;20045;-73
2024/04/05 02:32:41;;;;;;;9.43;3.20;;;;;;;;;;2074398;28;19980;-73
2024/04/05 02:33:43;;;;;;;;;;;;;;;;;;2076335;28;20077;-74
2024/04/05 02:34:43;;;;;;;7.63;2.88;;;;;;;;;;2073863;28;19921;-73
2024/04/05 02:35:44;;;;;;;;;;;;;;;;;;2076893;28;20115;-74
2024/04/05 02:36:45;;;;;;;11.40;3.97;;;;;;;;;;2074732;28;19921;-74
2024/04/05 02:37:46;;;;;;;;;;;;;;;;;;2074589;28;20053;-74
2024/04/05 02:38:47;;;;;;;10.75;3.53;;;;;;;;;;2073494;28;19925;-74
2024/04/05 02:39:47;;;;;;;;;;;;;;;;;;2075272;28;20064;-73
2024/04/05 02:40:53;;;;;;;7.67;3.20;;;;;;;;;;2074144;28;19927;-74
2024/04/05 02:41:54;;;;;;;8.95;3.40;;;;;;;;;;2073240;28;20128;-73
2024/04/05 02:42:55;;;;;;;9.32;3.22;;;;;;;;;;2075503;28;20504;-73
2024/04/05 02:43:56;;;;;;;;;;;;;;;;;;2075014;28;20046;-75
2024/04/05 02:44:56;;;;;;;8.40;3.40;;;;;;;;;;2076569;28;20560;-73
2024/04/05 02:45:58;;;;;;;;;;;;;;;;;;2076492;28;20253;-74
2024/04/05 02:46:59;;;;;;;8.60;3.67;;;;;;;;;;2075196;28;19964;-74
2024/04/05 02:47:59;;;;;;;;;;;;;;;;;;2074873;28;20064;-74
2024/04/05 02:49:00;;;;;;;8.50;3.47;;;;;;;;;;2073954;28;19921;-74
2024/04/05 02:50:00;;;;;;;;;;;;;;;;;;2066868;28;20407;-74
2024/04/05 02:51:02;;;;;;;12.67;3.53;;;;;;;;;;2066428;28;19932;-74
2024/04/05 02:52:04;;;;;;;12.90;4.07;;;;;;;;;;2067034;28;20061;-75
2024/04/05 02:53:05;;;;;;;7.78;3.50;;;;;;;;;;2068082;28;20054;-74
2024/04/05 02:54:06;;;;;;;;;;;;;;;;;;2069238;28;20073;-74
2024/04/05 02:55:08;;;;;;;8.85;4.03;;;;;;;;;;2069993;28;19948;-74
2024/04/05 02:56:11;;;;;;;10.27;3.70;;;;;;;;;;2067544;28;20050;-74
2024/04/05 02:57:11;;;;;;;11.73;4.00;;;;;;;;;;2068480;28;20141;-74
2024/04/05 02:58:13;;;;;;;;;;;;;;;;;;2067311;28;20049;-75
2024/04/05 02:59:14;;;;;;;10.10;4.13;;;;;;;;;;2068727;28;20009;-74
2024/04/05 03:00:15;;;;;;;;;;;;;;;;;;2074226;28;20556;-74
2024/04/05 03:01:16;;;;;;;10.50;4.07;;;;;;;;;;2073955;28;19968;-74
2024/04/05 03:02:17;;;;;;;;;;;;;;;;;;2069237;28;20053;-74
2024/04/05 03:03:18;;;;;;;10.98;3.42;;;;;;;;;;2066764;28;19934;-74
2024/04/05 03:04:18;;;;;;;;;;;;;;;;;;2068439;28;20431;-74
2024/04/05 03:05:19;;;;;;;9.83;4.10;;;;;;;;;;2075407;28;19960;-74
2024/04/05 03:06:21;;;;;;;;;;;;;;;;;;2075596;28;20128;-74
2024/04/05 03:07:21;;;;;;;;;;;;;;;;;;2078514;28;20420;-74
2024/04/05 03:08:22;;;;;;;7.30;3.20;;;;;;;;;;2077325;28;19924;-73
2024/04/05 03:09:23;;;;;;;;;;;;;;;;;;2075684;28;20114;-74
2024/04/05 03:10:24;;;;;;;11.57;3.40;;;;;;;;;;2074890;28;19974;-74
2024/04/05 03:11:27;;;;;;;10.95;3.80;;;;;;;;;;2077350;28;20417;-74
2024/04/05 03:12:27;;;;;;;13.75;4.00;;;;;;;;;;2075266;28;20053;-74
2024/04/05 03:13:28;;;;;;;;;;;;;;;;;;2076331;28;20051;-73
2024/04/05 03:14:30;;;;;;;12.20;3.83;;;;;;;;;;2075237;28;19925;-74
2024/04/05 03:15:30;;;;;;;10.63;3.60;;;;;;;;;;2074602;28;20054;-74
2024/04/05 03:16:31;;;;;;;;;;;;;;;;;;2076095;28;20056;-74
2024/04/05 03:17:33;;;;;;;12.93;3.80;;;;;;;;;;2077521;28;19925;-74
2024/04/05 03:18:34;;;;;;;8.10;3.20;;;;;;;;;;2074830;28;20104;-75
2024/04/05 03:19:34;;;;;;;;;;;;;;;;;;2075011;28;20482;-74
2024/04/05 03:20:35;;;;;;;13.60;4.00;;;;;;;;;;2075652;28;19928;-74
2024/04/05 03:21:37;;;;;;;;;;;;;;;;;;2075536;28;20049;-74
2024/04/05 03:22:37;;;;;;;7.68;3.55;;;;;;;;;;2074350;28;19925;-74
2024/04/05 03:23:38;;;;;;;;;;;;;;;;;;2075521;28;20429;-74
2024/04/05 03:24:39;;;;;;;8.13;3.63;;;;;;;;;;2074919;28;19922;-74
2024/04/05 03:25:40;;;;;;;9.73;3.72;;;;;;;;;;2074939;28;20069;-74
2024/04/05 03:26:42;;;;;;;;;;;;;;;;;;2075618;28;20484;-74
2024/04/05 03:27:43;;;;;;;6.85;3.20;;;;;;;;;;2075697;28;19947;-74
2024/04/05 03:28:46;;;;;;;;;;;;;;;;;;2076487;28;20536;-74
2024/04/05 03:29:47;;;;;;;6.78;3.60;;;;;;;;;;2074326;28;19967;-74
2024/04/05 03:30:47;;;;;;;;;;;;;;;;;;2076197;28;20136;-74
2024/04/05 03:31:49;;;;;;;8.20;3.40;;;;;;;;;;2075018;28;20502;-74
2024/04/05 03:32:51;;;;;;;7.90;3.50;;;;;;;;;;2076054;28;20065;-74
2024/04/05 03:33:51;;;;;;;14.75;4.22;;;;;;;;;;2074001;28;20068;-74
2024/04/05 03:34:52;;;;;;;;;;;;;;;;;;2075593;28;20089;-74
2024/04/05 03:35:54;;;;;;;11.30;3.93;;;;;;;;;;2077408;28;19925;-74
2024/04/05 03:36:55;;;;;;;10.25;3.22;;;;;;;;;;2082593;28;20189;-74
2024/04/05 03:37:56;;;;;;;;;;;;;;;;;;2082752;28;20052;-74
2024/04/05 03:39:00;;;;;;;7.63;3.20;;;;;;;;;;2073149;28;19955;-74
2024/04/05 03:40:02;;;;;;;11.32;3.95;;;;;;;;;;2074652;28;20058;-74
2024/04/05 03:41:04;;;;;;;11.25;4.03;;;;;;;;;;2076660;28;20057;-74
2024/04/05 03:42:07;;;;;;;9.38;4.45;;;;;;;;;;2074113;28;20049;-74
2024/04/05 03:43:08;;;;;;;10.93;3.60;;;;;;;;;;2074902;28;20512;-75
2024/04/05 03:44:08;;;;;;;;;;;;;;;;;;2073854;28;20049;-74
2024/04/05 03:45:09;;;;;;;8.67;3.23;;;;;;;;;;2073631;28;20083;-74
2024/04/05 03:46:09;;;;;;;;;;;;;;;;;;2074393;28;20099;-74
2024/04/05 03:47:11;;;;;;;13.10;3.33;;;;;;;;;;2076212;28;19929;-74
2024/04/05 03:48:12;;;;;;;7.65;3.65;;;;;;;;;;2075042;28;20517;-74
2024/04/05 03:49:13;;;;;;;;;;;;;;;;;;2074554;28;20145;-77
2024/04/05 03:50:14;;;;;;;8.43;3.37;;;;;;;;;;2075807;28;19928;-78
2024/04/05 03:51:15;;;;;;;9.50;3.08;;;;;;;;;;2074728;28;20536;-78
2024/04/05 03:52:16;;;;;;;;;;;;;;;;;;2074771;28;20053;-77
2024/04/05 03:53:17;;;;;;;9.63;3.17;;;;;;;;;;2074946;28;19921;-77
2024/04/05 03:54:19;;;;;;;10.85;3.70;;;;;;;;;;2074131;28;20045;-78
2024/04/05 03:55:20;;;;;;;13.52;4.28;;;;;;;;;;2073436;28;20084;-77
2024/04/05 03:56:20;;;;;;;;;;;;;;;;;;2077879;28;20050;-78
2024/04/05 03:57:23;;;;;;;11.43;3.20;;;;;;;;;;2076690;28;19968;-79
2024/04/05 03:58:25;;;;;;;12.65;4.18;;;;;;;;;;2074113;28;20445;-78
2024/04/05 03:59:26;;;;;;;9.32;3.42;;;;;;;;;;2072950;28;20662;-79
2024/04/05 04:00:27;;;;;;;6.65;3.20;;;;;;;;;;2074357;28;20406;-79
2024/04/05 04:01:28;;;;;;;;;;;;;;;;;;2076293;28;20060;-78
2024/04/05 04:02:30;;;;;;;12.18;3.72;;;;;;;;;;2072752;28;20344;-79
2024/04/05 04:03:31;;;;;;;8.93;3.78;;;;;;;;;;2075492;28;20064;-78
2024/04/05 04:04:31;;;;;;;;;;;;;;;;;;2075437;28;20056;-79
2024/04/05 04:05:32;;;;;;;9.57;3.43;;;;;;;;;;2074875;28;20360;-78
2024/04/05 04:06:34;;;;;;;;;;;;;;;;;;2076247;28;20053;-77
2024/04/05 04:07:34;;;;;;;;;;;;;;;;;;2072886;28;20008;-78
2024/04/05 04:08:35;;;;;;;12.17;3.57;;;;;;;;;;2076976;28;19964;-78
2024/04/05 04:09:37;;;;;;;12.38;3.58;;;;;;;;;;2075739;28;20053;-77
2024/04/05 04:10:38;;;;;;;11.65;3.70;;;;;;;;;;2074933;28;20042;-79
2024/04/05 04:11:39;;;;;;;;;;;;;;;;;;2074322;28;20382;-79
2024/04/05 04:12:42;;;;;;;10.33;3.20;;;;;;;;;;2073936;28;20058;-78
2024/04/05 04:13:43;;;;;;;10.65;3.53;;;;;;;;;;2074019;28;20527;-78
2024/04/05 04:14:44;;;;;;;;;;;;;;;;;;2074498;28;20065;-78
2024/04/05 04:15:44;;;;;;;9.80;3.87;;;;;;;;;;2075464;28;19924;-78
2024/04/05 04:16:46;;;;;;;;;;;;;;;;;;2074729;28;20048;-78
2024/04/05 04:17:47;;;;;;;12.45;4.45;;;;;;;;;;2073977;28;20561;-79
2024/04/05 04:18:48;;;;;;;;;;;;;;;;;;2076996;28;20053;-78
2024/04/05 04:19:50;;;;;;;12.20;3.63;;;;;;;;;;2073691;28;19925;-79
2024/04/05 04:20:50;;;;;;;14.20;4.07;;;;;;;;;;2075640;28;20141;-77
2024/04/05 04:21:51;;;;;;;;;;;;;;;;;;2076174;28;20112;-79
2024/04/05 04:22:53;;;;;;;10.70;3.90;;;;;;;;;;2074868;28;20734;-77
2024/04/05 04:23:54;;;;;;;13.20;4.20;;;;;;;;;;2074859;28;20072;-78
2024/04/05 04:24:54;;;;;;;;;;;;;;;;;;2074593;28;20435;-78
2024/04/05 04:25:55;;;;;;;11.77;3.33;;;;;;;;;;2074167;28;19994;-77
2024/04/05 04:26:57;;;;;;;;;;;;;;;;;;2074668;28;20464;-78
2024/04/05 04:27:59;;;;;;;11.68;3.55;;;;;;;;;;2075643;28;19921;-77
2024/04/05 04:29:00;;;;;;;10.27;4.20;;;;;;;;;;2076031;28;20078;-77
2024/04/05 04:30:00;;;;;;;;;;;;;;;;;;2075910;28;20084;-77
2024/04/05 04:31:16;;;;;;;14.50;3.60;;;;;;;;;;2074351;28;19925;-77
2024/04/05 04:32:17;;;;;;;11.13;3.65;;;;;;;;;;2072637;28;20053;-78
2024/04/05 04:33:18;;;;;;;;;;;;;;;;;;2074137;28;20056;-78
2024/04/05 04:34:20;;;;;;;13.20;3.92;;;;;;;;;;2075567;28;20061;-78
2024/04/05 04:35:21;;;;;;;6.70;3.50;;;;;;;;;;2073610;28;20068;-78
2024/04/05 04:36:22;;;;;;;;;;;;;;;;;;2078279;28;20054;-78
2024/04/05 04:37:23;;;;;;;11.48;3.97;;;;;;;;;;2075319;28;20359;-78
2024/04/05 04:38:25;;;;;;;12.93;3.65;;;;;;;;;;2074904;28;20062;-77
2024/04/05 04:39:26;;;;;;;13.98;4.43;;;;;;;;;;2076283;28;20049;-79
2024/04/05 04:40:26;;;;;;;;;;;;;;;;;;2073373;28;20386;-78
2024/04/05 04:41:27;;;;;;;9.10;3.63;;;;;;;;;;2066124;28;20263;-78
2024/04/05 04:42:28;;;;;;;;;;;;;;;;;;2067614;28;20065;-79
2024/04/05 04:43:31;;;;;;;10.18;4.03;;;;;;;;;;2069912;28;19922;-78
2024/04/05 04:44:32;;;;;;;14.80;4.03;;;;;;;;;;2074453;28;20481;-77
2024/04/05 04:45:33;;;;;;;;;;;;;;;;;;2074648;28;20045;-78
2024/04/05 04:46:35;;;;;;;13.13;4.20;;;;;;;;;;2067887;28;19925;-78
2024/04/05 04:47:35;;;;;;;8.65;3.35;;;;;;;;;;2065489;28;20050;-79
2024/04/05 04:48:36;;;;;;;;;;;;;;;;;;2069059;28;20433;-78
2024/04/05 04:49:36;;;;;;;12.03;3.63;;;;;;;;;;2065117;28;19929;-78
2024/04/05 04:50:38;;;;;;;;;;;;;;;;;;2066079;28;20054;-78
2024/04/05 04:51:39;;;;;;;10.98;2.95;;;;;;;;;;2068428;28;20462;-78
2024/04/05 04:52:39;;;;;;;;;;;;;;;;;;2067291;28;20100;-78
2024/04/05 04:53:40;;;;;;;6.87;2.87;;;;;;;;;;2067779;28;19933;-79
2024/04/05 04:54:41;;;;;;;;;;;;;;;;;;2067206;28;20046;-78
2024/04/05 04:55:44;;;;;;;9.65;2.85;;;;;;;;;;2065071;28;19929;-78
2024/04/05 04:56:45;;;;;;;9.48;2.58;;;;;;;;;;2067967;28;20058;-78
2024/04/05 04:57:46;;;;;;;;;;;;;;;;;;2069887;28;20057;-79
2024/04/05 04:58:50;;;;;;;12.47;2.90;;;;;;;;;;2067824;28;20309;-74
2024/04/05 04:59:51;;;;;;;12.75;3.00;;;;;;;;;;2066610;28;20177;-74
2024/04/05 05:00:51;;;;;;;10.23;2.38;;;;;;;;;;2066465;28;20050;-75
2024/04/05 05:01:52;;;;;;;;;;;;;;;;;;2066938;28;20116;-74
2024/04/05 05:02:54;;;;;;;6.83;2.30;;;;;;;;;;2067444;28;19924;-74
2024/04/05 05:03:56;;;;;;;10.73;2.22;;;;;;;;;;2066585;28;20140;-73
2024/04/05 05:04:56;;;;;;;10.45;2.47;;;;;;;;;;2075727;28;20133;-74
2024/04/05 05:05:57;;;;;;;;;;;;;;;;;;2077615;28;20104;-73
2024/04/05 05:06:59;;;;;;;9.63;2.00;;;;;;;;;;2075783;28;19925;-74
2024/04/05 05:07:59;;;;;;;11.95;2.63;;;;;;;;;;2073778;28;20045;-74
2024/04/05 05:09:00;;;;;;;;;;;;;;;;;;2075296;28;20402;-74
2024/04/05 05:10:01;;;;;;;11.23;2.43;;;;;;;;;;2072737;28;20301;-74
2024/04/05 05:11:02;;;;;;;;;;;;;;;;;;2077471;28;20056;-74
2024/04/05 05:12:05;;;;;;;7.88;2.00;;;;;;;;;;2075587;28;19921;-74
2024/04/05 05:13:05;;;;;;;8.48;1.92;;;;;;;;;;2077551;28;20057;-74
2024/04/05 05:14:07;;;;;;;;;;;;;;;;;;2078244;28;20505;-74
2024/04/05 05:15:09;;;;;;;7.82;2.38;;;;;;;;;;2075628;28;19925;-74
2024/04/05 05:16:10;;;;;;;8.35;2.47;;;;;;;;;;2074790;28;20054;-74
2024/04/05 05:17:10;;;;;;;;;;;;;;;;;;2076279;28;20076;-74
2024/04/05 05:18:11;;;;;;;6.77;2.10;;;;;;;;;;2074535;28;19925;-74
2024/04/05 05:19:13;;;;;;;;;;;;;;;;;;2074621;28;20513;-74
2024/04/05 05:20:16;;;;;;;10.05;2.50;;;;;;;;;;2073570;28;19921;-74
2024/04/05 05:21:17;;;;;;;8.88;2.33;;;;;;;;;;2075746;28;20049;-74
2024/04/05 05:22:18;;;;;;;;;;;;;;;;;;2075459;28;20052;-74
2024/04/05 05:23:20;;;;;;;7.07;2.22;;;;;;;;;;2075706;28;19921;-74
2024/04/05 05:24:21;;;;;;;10.90;2.20;;;;;;;;;;2076645;28;20046;-75
2024/04/05 05:25:21;;;;;;;;;;;;;;;;;;2072650;28;20073;-75
2024/04/05 05:26:22;;;;;;;7.83;1.93;;;;;;;;;;2068022;28;19930;-74
2024/04/05 05:27:24;;;;;;;;;;;;;;;;;;2069339;28;20046;-74
2024/04/05 05:28:24;;;;;;;6.90;2.10;;;;;;;;;;2068283;28;19971;-74
2024/04/05 05:29:26;;;;;;;;;;;;;;;;;;2069615;28;20049;-74
2024/04/05 05:30:27;;;;;;;8.95;2.28;;;;;;;;;;2070440;28;20302;-74
2024/04/05 05:31:28;;;;;;;;;;;;;;;;;;2068456;28;20085;-74
2024/04/05 05:32:29;;;;;;;8.43;2.08;;;;;;;;;;2068100;28;20068;-74
2024/04/05 05:33:30;;;;;;;;;;;;;;;;;;2066948;28;20062;-74
2024/04/05 05:34:30;;;;;;;9.07;2.43;;;;;;;;;;2068335;28;19937;-74
2024/04/05 05:35:32;;;;;;;;;;;;;;;;;;2068139;28;20084;-74
2024/04/05 05:36:33;;;;;;;;;;;;;;;;;;2068669;28;20406;-75
2024/04/05 05:37:34;;;;;;;6.35;1.75;;;;;;;;;;2068225;28;19927;-74
2024/04/05 05:38:36;;;;;;;9.00;1.88;;;;;;;;;;2067552;28;20124;-74
2024/04/05 05:39:37;;;;;;;7.13;2.15;;;;;;;;;;2067791;28;20419;-74
2024/04/05 05:40:38;;;;;;;;;;;;;;;;;;2068265;28;20080;-75
2024/04/05 05:41:39;;;;;;;11.10;2.57;;;;;;;;;;2067866;28;19926;-74
2024/04/05 05:42:40;;;;;;;;;;;;;;;;;;2069791;28;20061;-74
2024/04/05 05:43:41;;;;;;;;;;;;;;;;;;2070427;28;20377;-73
2024/04/05 05:44:43;;;;;;;11.50;2.03;;;;;;;;;;2068373;28;19932;-74
2024/04/05 05:45:43;;;;;;;7.63;2.20;;;;;;;;;;2067041;28;20449;-74
2024/04/05 05:46:45;;;;;;;;;;;;;;;;;;2068683;28;20055;-74
2024/04/05 05:47:46;;;;;;;7.05;2.40;;;;;;;;;;2068381;28;20460;-74
2024/04/05 05:48:47;;;;;;;;;;;;;;;;;;2069465;28;20046;-75
2024/04/05 05:49:49;;;;;;;6.43;2.00;;;;;;;;;;2067290;28;20388;-74
2024/04/05 05:50:51;;;;;;;14.10;2.88;;;;;;;;;;2068306;28;20148;-74
2024/04/05 05:51:52;;;;;;;10.55;2.17;;;;;;;;;;2067100;28;20073;-74
2024/04/05 05:52:53;;;;;;;7.68;2.47;;;;;;;;;;2069770;28;20726;-75
2024/04/05 05:53:54;;;;;;;;;;;;;;;;;;2068373;28;20050;-74
2024/04/05 05:54:56;;;;;;;6.57;2.30;;;;;;;;;;2068814;28;19925;-74
2024/04/05 05:55:56;;;;;;;12.43;2.30;;;;;;;;;;2069033;28;20064;-74
2024/04/05 05:56:57;;;;;;;;;;;;;;;;;;2069087;28;20056;-74
2024/04/05 05:57:58;;;;;;;9.90;2.20;;;;;;;;;;2069258;28;19964;-74
2024/04/05 05:58:59;;;;;;;;;;;;;;;;;;2068268;28;20096;-74
2024/04/05 06:00:02;;;;;;;10.02;2.58;;;;;;;;;;2066220;28;20362;-74
2024/04/05 06:01:06;;;;;;;6.93;2.80;;;;;;;;;;2067077;28;20057;-74
2024/04/05 06:02:07;;;;;;;9.52;2.47;;;;;;;;;;2068576;28;20054;-74
2024/04/05 06:03:08;;;;;;;;;;;;;;;;;;2067592;28;20426;-74
2024/04/05 06:04:10;;;;;;;8.27;2.15;;;;;;;;;;2067238;28;19925;-74
2024/04/05 06:05:11;;;;;;;6.18;2.10;;;;;;;;;;2067834;28;20537;-75
2024/04/05 06:06:12;;;;;;;11.50;2.03;;;;;;;;;;2067725;28;20138;-74
2024/04/05 06:07:13;;;;;;;;;;;;;;;;;;2068222;28;20160;-74
2024/04/05 06:08:14;;;;;;;12.07;2.53;;;;;;;;;;2068114;28;19963;-74
2024/04/05 06:09:16;;;;;;;;;;;;;;;;;;2067063;28;20568;-77
2024/04/05 06:10:17;;;;;;;;;;;;;;;;;;2069116;28;20048;-79
2024/04/05 06:11:18;;;;;;;9.13;2.20;;;;;;;;;;2066922;28;19961;-78
2024/04/05 06:12:19;;;;;;;;;;;;;;;;;;2069102;28;20509;-78
2024/04/05 06:13:20;;;;;;;8.30;1.83;;;;;;;;;;2069392;28;20266;-79
2024/04/05 06:14:21;;;;;;;;;;;;;;;;;;2067888;28;20053;-78
2024/04/05 06:15:23;;;;;;;;;;;;;;;;;;2067783;28;20012;-78
2024/04/05 06:16:24;;;;;;;11.07;2.60;;;;;;;;;;2067448;28;20016;-78
2024/04/05 06:17:25;;;;;;;;;;;;;;;;;;2067996;28;20082;-78
2024/04/05 06:18:28;;;;;;;7.43;2.13;;;;;;;;;;2069465;28;19944;-77
2024/04/05 06:19:29;;;;;;;10.00;2.58;;;;;;;;;;2066393;28;21150;-79
2024/04/05 06:20:29;;;;;;;;;;;;;;;;;;2065634;28;20069;-77
2024/04/05 06:21:30;;;;;;;9.37;2.20;;;;;;;;;;2064420;28;19973;-77
2024/04/05 06:22:31;;;;;;;;;;;;;;;;;;2064083;28;20070;-77
2024/04/05 06:23:32;;;;;;;11.73;2.28;;;;;;;;;;2065839;28;19926;-77